createdAt,value
2019-04-20T00:00:00.818Z,4.53
2019-04-20T00:02:33.865Z,4.47
2019-04-20T00:05:07.562Z,4.67
2019-04-20T00:07:41.852Z,4.42
2019-04-20T00:10:19.704Z,4.17
2019-04-20T00:13:02.313Z,4.05
2019-04-20T00:15:26.032Z,4.40
2019-04-20T00:18:02.213Z,3.60
2019-04-20T00:20:36.917Z,4.00
2019-04-20T00:23:33.425Z,4.37
2019-04-20T00:26:43.935Z,3.72
2019-04-20T00:29:21.317Z,4.37
2019-04-20T00:31:49.238Z,3.70
2019-04-20T00:34:18.960Z,4.00
2019-04-20T00:36:47.336Z,4.17
2019-04-20T00:39:21.897Z,4.40
2019-04-20T00:42:01.084Z,3.77
2019-04-20T00:44:35.806Z,3.98
2019-04-20T00:47:15.572Z,4.53
2019-04-20T00:49:55.060Z,4.30
2019-04-20T00:52:31.085Z,3.98
2019-04-20T00:54:51.506Z,3.72
2019-04-20T00:57:35.964Z,4.10
2019-04-20T01:00:17.716Z,4.87
2019-04-20T01:02:44.457Z,4.45
2019-04-20T01:05:35.417Z,4.35
2019-04-20T01:08:06.461Z,4.05
2019-04-20T01:10:46.128Z,4.37
2019-04-20T01:13:19.598Z,4.12
2019-04-20T01:15:58.091Z,3.83
2019-04-20T01:18:26.389Z,4.05
2019-04-20T01:21:06.757Z,4.58
2019-04-20T01:23:40.199Z,4.53
2019-04-20T01:26:15.345Z,4.40
2019-04-20T01:28:58.631Z,4.10
2019-04-20T01:31:29.294Z,4.05
2019-04-20T01:34:04.472Z,4.22
2019-04-20T01:36:51.757Z,4.53
2019-04-20T01:39:18.414Z,3.90
2019-04-20T01:41:43.631Z,4.37
2019-04-20T01:44:27.091Z,3.90
2019-04-20T01:46:58.812Z,4.12
2019-04-20T01:49:33.249Z,4.20
2019-04-20T01:52:12.921Z,4.28
2019-04-20T01:54:56.447Z,4.17
2019-04-20T01:57:45.771Z,4.30
2019-04-20T02:00:40.102Z,4.42
2019-04-20T02:03:34.152Z,3.52
2019-04-20T02:06:09.912Z,3.52
2019-04-20T02:08:56.791Z,4.00
2019-04-20T02:11:33.962Z,4.05
2019-04-20T02:14:05.606Z,4.55
2019-04-20T02:16:51.726Z,4.00
2019-04-20T02:19:37.854Z,4.42
2019-04-20T02:22:13.293Z,3.87
2019-04-20T02:24:42.613Z,4.03
2019-04-20T02:27:20.633Z,4.17
2019-04-20T02:30:25.239Z,3.87
2019-04-20T02:33:09.803Z,4.28
2019-04-20T02:36:06.185Z,4.08
2019-04-20T02:39:15.166Z,3.87
2019-04-20T02:41:29.478Z,3.90
2019-04-20T02:46:45.299Z,3.52
2019-04-20T02:49:26.171Z,4.05
2019-04-20T02:51:46.894Z,4.08
2019-04-20T02:54:18.784Z,4.15
2019-04-20T03:01:53.222Z,3.92
2019-04-20T03:04:21.458Z,4.37
2019-04-20T03:06:58.389Z,3.90
2019-04-20T03:09:39.923Z,4.12
2019-04-20T03:12:17.012Z,4.20
2019-04-20T03:14:46.361Z,4.70
2019-04-20T03:17:29.827Z,4.05
2019-04-20T03:19:52.342Z,3.75
2019-04-20T03:23:01.086Z,3.92
2019-04-20T03:25:20.976Z,3.87
2019-04-20T03:27:59.571Z,4.55
2019-04-20T03:33:58.280Z,4.70
2019-04-20T03:38:44.807Z,3.98
2019-04-20T03:41:08.590Z,4.08
2019-04-20T03:43:32.862Z,4.60
2019-04-20T03:46:10.620Z,4.85
2019-04-20T03:48:56.266Z,4.05
2019-04-20T03:51:40.054Z,4.78
2019-04-20T03:54:18.505Z,4.35
2019-04-20T03:57:17.464Z,3.83
2019-04-20T04:00:15.146Z,4.05
2019-04-20T04:03:08.472Z,4.05
2019-04-20T04:05:36.941Z,4.60
2019-04-20T04:08:10.552Z,4.28
2019-04-20T04:10:56.078Z,4.75
2019-04-20T04:13:16.833Z,4.47
2019-04-20T04:15:57.527Z,4.72
2019-04-20T04:18:31.903Z,5.28
2019-04-20T04:21:07.871Z,5.28
2019-04-20T04:23:48.714Z,4.78
2019-04-20T04:26:27.472Z,4.65
2019-04-20T04:29:08.421Z,5.00
2019-04-20T04:31:50.792Z,4.60
2019-04-20T04:34:12.234Z,4.65
2019-04-20T04:36:53.698Z,5.35
2019-04-20T04:39:32.231Z,4.87
2019-04-20T04:42:14.612Z,4.70
2019-04-20T04:44:30.224Z,4.90
2019-04-20T04:46:58.552Z,4.22
2019-04-20T04:49:35.039Z,5.03
2019-04-20T04:52:10.365Z,4.20
2019-04-20T04:54:47.259Z,5.10
2019-04-20T04:57:13.980Z,5.17
2019-04-20T04:59:46.683Z,5.35
2019-04-20T05:02:22.756Z,3.87
2019-04-20T05:05:35.805Z,4.87
2019-04-20T05:07:59.453Z,4.65
2019-04-20T05:10:24.667Z,5.47
2019-04-20T05:12:58.741Z,4.62
2019-04-20T05:15:49.039Z,5.47
2019-04-20T05:18:34.693Z,4.97
2019-04-20T05:21:05.876Z,5.90
2019-04-20T05:23:53.267Z,4.90
2019-04-20T05:26:58.281Z,5.10
2019-04-20T05:29:14.530Z,4.83
2019-04-20T05:31:49.076Z,5.10
2019-04-20T05:34:40.292Z,4.83
2019-04-20T05:37:23.665Z,4.72
2019-04-20T05:39:50.938Z,4.62
2019-04-20T05:42:33.897Z,4.75
2019-04-20T05:44:58.017Z,4.60
2019-04-20T05:47:33.431Z,5.37
2019-04-20T05:50:01.260Z,4.95
2019-04-20T05:52:53.289Z,5.20
2019-04-20T05:55:20.904Z,4.78
2019-04-20T05:57:57.056Z,5.12
2019-04-20T06:00:38.980Z,5.90
2019-04-20T06:03:09.512Z,5.47
2019-04-20T06:05:53.487Z,5.40
2019-04-20T06:08:34.290Z,5.45
2019-04-20T06:10:56.462Z,4.70
2019-04-20T06:13:35.076Z,6.17
2019-04-20T06:16:31.074Z,5.62
2019-04-20T06:19:15.201Z,4.97
2019-04-20T06:22:01.641Z,5.72
2019-04-20T06:24:40.005Z,5.33
2019-04-20T06:27:05.002Z,5.97
2019-04-20T06:29:42.629Z,6.00
2019-04-20T06:32:23.494Z,5.47
2019-04-20T06:34:47.890Z,5.33
2019-04-20T06:37:23.474Z,6.47
2019-04-20T06:40:07.861Z,6.47
2019-04-20T06:42:35.874Z,5.72
2019-04-20T06:45:09.824Z,6.47
2019-04-20T06:47:51.842Z,6.15
2019-04-20T06:50:18.598Z,6.67
2019-04-20T06:53:28.576Z,5.25
2019-04-20T06:56:06.684Z,5.83
2019-04-20T06:58:43.515Z,5.22
2019-04-20T07:01:10.961Z,5.25
2019-04-20T07:04:06.570Z,4.53
2019-04-20T07:06:42.163Z,4.70
2019-04-20T07:09:00.634Z,4.60
2019-04-20T07:13:55.632Z,5.22
2019-04-20T07:16:55.639Z,4.70
2019-04-20T07:19:39.112Z,5.22
2019-04-20T07:22:39.460Z,4.83
2019-04-20T07:25:06.382Z,4.65
2019-04-20T07:27:49.406Z,5.05
2019-04-20T07:30:16.498Z,5.33
2019-04-20T07:32:58.013Z,5.28
2019-04-20T07:35:36.024Z,4.97
2019-04-20T07:38:23.383Z,5.35
2019-04-20T07:40:44.106Z,4.72
2019-04-20T07:43:19.731Z,5.10
2019-04-20T07:45:55.892Z,5.60
2019-04-20T07:48:33.805Z,5.08
2019-04-20T07:50:58.305Z,4.55
2019-04-20T07:53:36.133Z,4.65
2019-04-20T07:56:25.539Z,4.78
2019-04-20T07:58:44.168Z,5.42
2019-04-20T08:01:46.403Z,4.70
2019-04-20T08:04:24.506Z,5.05
2019-04-20T08:06:47.003Z,4.55
2019-04-20T08:09:26.056Z,5.12
2019-04-20T08:12:20.474Z,4.67
2019-04-20T08:14:56.890Z,4.87
2019-04-20T08:17:30.593Z,4.72
2019-04-20T08:19:58.130Z,4.45
2019-04-20T08:22:35.489Z,4.85
2019-04-20T08:25:04.616Z,4.40
2019-04-20T08:27:31.652Z,4.03
2019-04-20T08:30:29.324Z,4.33
2019-04-20T08:33:10.001Z,4.83
2019-04-20T08:35:52.472Z,4.63
2019-04-20T08:39:00.123Z,4.13
2019-04-20T08:41:02.930Z,4.23
2019-04-20T08:43:47.408Z,3.53
2019-04-20T08:46:17.896Z,4.10
2019-04-20T08:48:51.568Z,3.87
2019-04-20T08:51:25.517Z,4.03
2019-04-20T08:53:56.361Z,4.20
2019-04-20T08:56:31.183Z,3.97
2019-04-20T08:58:52.844Z,4.23
2019-04-20T09:01:30.328Z,4.67
2019-04-20T09:04:11.289Z,4.13
2019-04-20T09:06:50.728Z,4.50
2019-04-20T09:09:44.310Z,4.90
2019-04-20T09:12:07.551Z,4.20
2019-04-20T09:14:23.624Z,4.10
2019-04-20T09:17:05.721Z,3.97
2019-04-20T09:19:46.939Z,4.43
2019-04-20T09:22:40.215Z,4.53
2019-04-20T09:25:42.856Z,4.87
2019-04-20T09:28:11.565Z,4.03
2019-04-20T09:30:52.023Z,4.83
2019-04-20T09:33:48.588Z,4.50
2019-04-20T09:36:24.231Z,4.67
2019-04-20T09:39:30.405Z,4.53
2019-04-20T09:42:18.032Z,4.58
2019-04-20T09:45:02.468Z,4.40
2019-04-20T09:50:22.543Z,5.22
2019-04-20T09:52:59.116Z,4.67
2019-04-20T09:55:29.415Z,4.97
2019-04-20T09:58:07.308Z,4.50
2019-04-20T10:00:56.634Z,5.37
2019-04-20T10:03:16.532Z,4.90
2019-04-20T10:05:49.737Z,4.97
2019-04-20T10:08:23.897Z,4.70
2019-04-20T10:10:57.228Z,4.60
2019-04-20T10:13:30.316Z,6.27
2019-04-20T10:16:03.831Z,4.63
2019-04-20T10:18:41.374Z,4.40
2019-04-20T10:21:11.832Z,4.67
2019-04-20T10:23:44.887Z,5.00
2019-04-20T10:26:18.673Z,4.70
2019-04-20T10:28:51.887Z,4.70
2019-04-20T10:31:24.913Z,4.80
2019-04-20T10:33:57.664Z,4.17
2019-04-20T10:36:43.737Z,5.07
2019-04-20T10:39:18.438Z,4.53
2019-04-20T10:41:56.271Z,5.47
2019-04-20T10:44:27.491Z,5.13
2019-04-20T10:47:00.817Z,4.67
2019-04-20T10:49:35.328Z,4.43
2019-04-20T10:52:09.709Z,5.13
2019-04-20T10:54:43.191Z,4.90
2019-04-20T10:57:21.632Z,4.40
2019-04-20T10:59:55.402Z,4.83
2019-04-20T11:02:28.257Z,4.23
2019-04-20T11:05:02.680Z,4.23
2019-04-20T11:08:15.030Z,4.47
2019-04-20T11:11:00.251Z,5.30
2019-04-20T11:13:23.552Z,4.80
2019-04-20T11:15:56.791Z,4.40
2019-04-20T11:18:31.297Z,4.73
2019-04-20T11:21:04.534Z,4.78
2019-04-20T11:23:38.313Z,4.65
2019-04-20T11:26:11.055Z,4.53
2019-04-20T11:28:44.170Z,5.33
2019-04-20T11:31:17.614Z,5.47
2019-04-20T11:33:50.056Z,4.20
2019-04-20T11:36:23.224Z,4.10
2019-04-20T11:38:56.712Z,4.08
2019-04-20T11:41:32.715Z,4.42
2019-04-20T11:44:05.577Z,5.15
2019-04-20T11:46:38.815Z,4.33
2019-04-20T11:49:13.199Z,4.20
2019-04-20T11:51:45.917Z,5.08
2019-04-20T11:54:18.649Z,4.95
2019-04-20T11:56:51.483Z,4.53
2019-04-20T11:59:25.279Z,4.67
2019-04-20T12:02:07.804Z,4.72
2019-04-20T12:04:51.848Z,4.45
2019-04-20T12:07:24.777Z,3.97
2019-04-20T12:10:07.306Z,3.55
2019-04-20T12:12:41.256Z,4.15
2019-04-20T12:15:08.715Z,3.98
2019-04-20T12:17:41.795Z,4.10
2019-04-20T12:20:16.642Z,4.28
2019-04-20T12:22:50.468Z,4.53
2019-04-20T12:25:23.786Z,4.22
2019-04-20T12:27:59.935Z,4.80
2019-04-20T12:30:31.274Z,4.20
2019-04-20T12:33:05.597Z,4.05
2019-04-20T12:35:40.257Z,4.00
2019-04-20T12:38:13.283Z,4.20
2019-04-20T12:40:46.403Z,3.97
2019-04-20T12:43:20.318Z,4.80
2019-04-20T12:45:53.800Z,4.37
2019-04-20T12:48:26.224Z,4.37
2019-04-20T12:50:59.512Z,4.30
2019-04-20T12:53:32.741Z,4.28
2019-04-20T12:56:06.519Z,3.87
2019-04-20T12:58:42.989Z,3.70
2019-04-20T13:01:21.080Z,3.77
2019-04-20T13:03:53.648Z,4.33
2019-04-20T13:06:27.920Z,3.62
2019-04-20T13:09:02.768Z,4.20
2019-04-20T13:11:51.653Z,3.80
2019-04-20T13:15:44.546Z,4.40
2019-04-20T13:18:21.169Z,3.70
2019-04-20T13:20:57.869Z,4.12
2019-04-20T13:23:30.919Z,4.03
2019-04-20T13:26:05.843Z,3.80
2019-04-20T13:28:39.070Z,4.15
2019-04-20T13:31:13.520Z,3.65
2019-04-20T13:33:47.499Z,3.37
2019-04-20T13:36:22.015Z,3.60
2019-04-20T13:38:56.337Z,3.37
2019-04-20T13:41:29.754Z,3.72
2019-04-20T13:44:04.795Z,3.45
2019-04-20T13:46:38.840Z,3.65
2019-04-20T13:49:13.112Z,3.75
2019-04-20T13:51:46.568Z,3.37
2019-04-20T13:54:24.419Z,4.42
2019-04-20T13:56:55.760Z,3.67
2019-04-20T13:59:33.890Z,3.70
2019-04-20T14:02:15.319Z,3.95
2019-04-20T14:04:52.789Z,3.45
2019-04-20T14:07:27.018Z,3.70
2019-04-20T14:10:01.370Z,3.50
2019-04-20T14:12:39.037Z,3.65
2019-04-20T14:15:11.241Z,4.33
2019-04-20T14:17:44.136Z,4.50
2019-04-20T14:20:20.290Z,4.00
2019-04-20T14:22:52.501Z,3.42
2019-04-20T14:25:25.148Z,3.98
2019-04-20T14:27:58.286Z,3.50
2019-04-20T14:30:30.983Z,3.70
2019-04-20T14:33:05.226Z,4.10
2019-04-20T14:35:38.809Z,4.10
2019-04-20T14:38:13.009Z,3.85
2019-04-20T14:40:46.306Z,4.37
2019-04-20T14:43:19.396Z,3.75
2019-04-20T14:45:52.845Z,3.85
2019-04-20T14:48:26.869Z,3.90
2019-04-20T14:50:59.836Z,3.70
2019-04-20T14:53:33.697Z,3.80
2019-04-20T14:56:07.282Z,3.47
2019-04-20T14:58:45.085Z,3.62
2019-04-20T15:01:42.907Z,3.33
2019-04-20T15:04:18.620Z,4.03
2019-04-20T15:06:50.726Z,3.45
2019-04-20T15:09:22.973Z,3.45
2019-04-20T15:11:56.918Z,3.30
2019-04-20T15:14:29.674Z,3.65
2019-04-20T15:17:02.993Z,3.30
2019-04-20T15:19:43.458Z,3.52
2019-04-20T15:22:51.693Z,3.80
2019-04-20T15:25:27.532Z,3.62
2019-04-20T15:28:00.580Z,3.35
2019-04-20T15:30:34.159Z,3.60
2019-04-20T15:33:07.299Z,3.62
2019-04-20T15:35:40.296Z,3.33
2019-04-20T15:38:15.286Z,3.45
2019-04-20T15:40:48.986Z,3.75
2019-04-20T15:43:25.920Z,3.20
2019-04-20T15:45:57.358Z,3.00
2019-04-20T15:48:32.143Z,2.93
2019-04-20T15:51:08.000Z,2.67
2019-04-20T15:53:41.758Z,4.10
2019-04-20T15:56:18.519Z,4.53
2019-04-20T15:58:54.295Z,5.33
2019-04-20T16:01:34.449Z,3.83
2019-04-20T16:04:24.324Z,3.05
2019-04-20T16:06:47.540Z,3.02
2019-04-20T16:09:21.960Z,2.92
2019-04-20T16:11:55.065Z,3.15
2019-04-20T16:14:28.079Z,3.10
2019-04-20T16:17:03.978Z,3.27
2019-04-20T16:19:46.141Z,3.40
2019-04-20T16:22:10.077Z,2.67
2019-04-20T16:24:48.961Z,2.90
2019-04-20T16:27:41.570Z,3.02
2019-04-20T16:30:15.735Z,3.33
2019-04-20T16:32:50.215Z,3.20
2019-04-20T16:35:22.924Z,3.05
2019-04-20T16:37:56.603Z,3.97
2019-04-20T16:40:29.846Z,4.27
2019-04-20T16:43:15.281Z,4.87
2019-04-20T16:45:37.416Z,3.20
2019-04-20T16:48:10.635Z,3.65
2019-04-20T16:50:44.990Z,3.52
2019-04-20T16:53:19.072Z,5.70
2019-04-20T16:55:52.780Z,5.22
2019-04-20T16:58:26.043Z,4.20
2019-04-20T17:00:59.441Z,3.72
2019-04-20T17:03:44.168Z,3.98
2019-04-20T17:06:08.317Z,3.00
2019-04-20T17:08:44.108Z,3.65
2019-04-20T17:11:16.400Z,4.30
2019-04-20T17:13:54.758Z,3.67
2019-04-20T17:16:25.928Z,3.60
2019-04-20T17:18:59.629Z,2.87
2019-04-20T17:21:34.188Z,3.75
2019-04-20T17:24:07.538Z,3.22
2019-04-20T17:26:54.938Z,3.25
2019-04-20T17:29:31.346Z,2.98
2019-04-20T17:32:11.711Z,3.25
2019-04-20T17:35:03.141Z,3.33
2019-04-20T17:37:22.661Z,2.58
2019-04-20T17:40:22.125Z,2.60
2019-04-20T17:42:41.310Z,3.50
2019-04-20T17:45:12.324Z,3.57
2019-04-20T17:47:57.917Z,4.03
2019-04-20T17:50:33.050Z,4.07
2019-04-20T17:53:07.529Z,3.43
2019-04-20T17:55:41.306Z,4.13
2019-04-20T17:58:17.910Z,3.80
2019-04-20T18:00:59.573Z,3.13
2019-04-20T18:04:05.445Z,3.67
2019-04-20T18:06:30.373Z,3.67
2019-04-20T18:09:00.434Z,3.15
2019-04-20T18:11:22.024Z,3.42
2019-04-20T18:13:58.909Z,3.58
2019-04-20T18:16:52.374Z,3.40
2019-04-20T18:19:24.685Z,3.80
2019-04-20T18:21:59.294Z,3.33
2019-04-20T18:24:55.806Z,3.40
2019-04-20T18:27:29.001Z,3.43
2019-04-20T18:30:04.054Z,2.80
2019-04-20T18:32:25.331Z,3.10
2019-04-20T18:35:05.370Z,3.50
2019-04-20T18:37:36.787Z,2.98
2019-04-20T18:40:13.420Z,3.05
2019-04-20T18:42:50.843Z,4.20
2019-04-20T18:45:38.206Z,3.08
2019-04-20T18:48:14.717Z,4.67
2019-04-20T18:50:35.562Z,4.70
2019-04-20T18:53:05.574Z,5.00
2019-04-20T18:55:43.810Z,4.57
2019-04-20T18:58:15.168Z,4.50
2019-04-20T19:00:51.595Z,3.80
2019-04-20T19:03:27.724Z,4.00
2019-04-20T19:05:58.442Z,3.57
2019-04-20T19:08:38.134Z,4.47
2019-04-20T19:11:12.620Z,4.13
2019-04-20T19:13:48.163Z,4.13
2019-04-20T19:16:38.389Z,5.10
2019-04-20T19:19:28.111Z,3.67
2019-04-20T19:21:54.142Z,3.90
2019-04-20T19:24:32.721Z,3.93
2019-04-20T19:27:06.651Z,3.80
2019-04-20T19:29:47.285Z,3.90
2019-04-20T19:32:30.263Z,3.67
2019-04-20T19:35:02.873Z,4.03
2019-04-20T19:37:34.505Z,4.73
2019-04-20T19:40:10.791Z,4.70
2019-04-20T19:42:47.505Z,5.07
2019-04-20T19:45:43.868Z,5.17
2019-04-20T19:48:09.647Z,4.83
2019-04-20T19:50:57.816Z,5.33
2019-04-20T19:53:32.227Z,5.60
2019-04-20T19:55:56.319Z,6.42
2019-04-20T19:58:35.578Z,5.75
2019-04-20T20:01:01.651Z,6.10
2019-04-20T20:03:37.637Z,6.58
2019-04-20T20:06:23.828Z,6.10
2019-04-20T20:08:58.007Z,6.80
2019-04-20T20:11:38.079Z,5.80
2019-04-20T20:14:09.817Z,6.90
2019-04-20T20:17:01.632Z,6.33
2019-04-20T20:19:32.334Z,6.80
2019-04-20T20:22:05.649Z,6.37
2019-04-20T20:24:27.619Z,6.80
2019-04-20T20:27:06.206Z,6.40
2019-04-20T20:29:46.650Z,6.05
2019-04-20T20:32:22.862Z,6.08
2019-04-20T20:34:58.594Z,5.42
2019-04-20T20:37:31.769Z,5.42
2019-04-20T20:40:15.210Z,5.50
2019-04-20T20:42:50.702Z,5.05
2019-04-20T20:45:19.841Z,5.53
2019-04-20T20:48:07.830Z,5.45
2019-04-20T20:50:37.030Z,4.97
2019-04-20T20:53:06.382Z,5.60
2019-04-20T20:55:34.426Z,5.00
2019-04-20T20:58:12.792Z,5.12
2019-04-20T21:00:48.424Z,4.65
2019-04-20T21:03:22.128Z,5.03
2019-04-20T21:05:49.574Z,5.30
2019-04-20T21:08:23.877Z,5.30
2019-04-20T21:10:57.725Z,5.90
2019-04-20T21:13:35.673Z,6.10
2019-04-20T21:16:14.735Z,5.62
2019-04-20T21:19:03.244Z,5.87
2019-04-20T21:21:36.050Z,5.28
2019-04-20T21:24:05.127Z,5.72
2019-04-20T21:26:38.733Z,6.78
2019-04-20T21:29:10.105Z,5.67
2019-04-20T21:31:56.883Z,5.80
2019-04-20T21:34:20.575Z,5.47
2019-04-20T21:36:55.256Z,5.47
2019-04-20T21:39:38.840Z,6.03
2019-04-20T21:42:11.744Z,5.67
2019-04-20T21:44:43.003Z,6.28
2019-04-20T21:47:27.340Z,5.15
2019-04-20T21:50:05.781Z,6.33
2019-04-20T21:52:34.278Z,5.67
2019-04-20T21:55:01.812Z,5.65
2019-04-20T21:57:42.042Z,6.00
2019-04-20T22:00:24.972Z,4.75
2019-04-20T22:02:56.144Z,5.20
2019-04-20T22:05:25.287Z,4.72
2019-04-20T22:08:03.263Z,5.78
2019-04-20T22:10:34.641Z,6.05
2019-04-20T22:13:08.180Z,5.80
2019-04-20T22:15:50.547Z,7.37
2019-04-20T22:18:21.527Z,7.08
2019-04-20T22:21:03.517Z,6.30
2019-04-20T22:23:45.414Z,5.75
2019-04-20T22:26:11.876Z,5.55
2019-04-20T22:28:36.288Z,5.37
2019-04-20T22:31:09.635Z,4.80
2019-04-20T22:33:45.459Z,5.17
2019-04-20T22:36:25.958Z,5.00
2019-04-20T22:39:15.642Z,5.30
2019-04-20T22:41:59.196Z,4.80
2019-04-20T22:44:30.559Z,5.05
2019-04-20T22:47:05.437Z,5.60
2019-04-20T22:49:50.269Z,6.10
2019-04-20T22:52:30.503Z,5.70
2019-04-20T22:55:10.049Z,5.45
2019-04-20T22:57:36.250Z,5.25
2019-04-20T23:00:03.436Z,5.53
2019-04-20T23:02:33.442Z,5.58
2019-04-20T23:05:06.810Z,5.35
2019-04-20T23:10:11.835Z,4.97
2019-04-20T23:15:18.450Z,4.28
2019-04-20T23:17:53.820Z,5.35
2019-04-20T23:20:31.969Z,5.20
2019-04-20T23:23:02.891Z,5.12
2019-04-20T23:25:36.576Z,6.35
2019-04-20T23:28:13.974Z,5.87
2019-04-20T23:30:45.721Z,6.65
2019-04-20T23:33:20.165Z,5.87
2019-04-20T23:35:57.666Z,5.17
2019-04-20T23:38:28.655Z,4.92
2019-04-20T23:41:03.827Z,5.25
2019-04-20T23:43:54.936Z,5.15
2019-04-20T23:46:47.412Z,5.53
2019-04-20T23:49:31.033Z,5.15
2019-04-20T23:52:26.984Z,4.75
2019-04-20T23:54:38.615Z,4.95
2019-04-20T23:57:11.569Z,5.15
2019-04-20T23:59:46.677Z,7.03
